Date,TemperatureHighF,TemperatureAvgF,TemperatureLowF,DewpointHighF,DewpointAvgF,DewpointLowF,HumidityHigh,HumidityAvg,HumidityLow,PressureMaxIn,PressureMinIn,WindSpeedMaxMPH,WindSpeedAvgMPH,GustSpeedMaxMPH,PrecipitationSumIn
2013-1-1,46,38,26,29,18,4,100,53,19,0.00,40.00,18,9,41,0.00
2013-1-2,57,43,25,16,8,2,67,26,12,0.00,40.00,15,7,30,0.00
2013-1-3,56,38,24,17,10,4,71,36,13,0.00,40.00,12,5,23,0.00
2013-1-4,57,40,22,14,5,-2,63,29,9,0.00,40.00,8,3,15,0.00
2013-1-5,61,39,20,17,9,-4,75,40,7,0.00,40.00,7,2,12,0.00
2013-1-6,46,36,24,40,31,14,100,81,55,0.00,40.00,10,4,20,0.00
2013-1-7,54,42,33,39,29,15,100,66,22,0.00,40.00,10,3,23,0.00
2013-1-8,66,45,27,30,24,17,84,50,17,0.00,40.00,9,3,15,0.00
2013-1-9,68,47,32,45,33,24,93,64,19,0.00,40.00,10,3,15,0.00
2013-1-10,43,38,32,43,36,30,100,93,72,0.00,40.00,17,9,30,0.00
2013-1-11,41,33,24,31,23,13,100,72,33,0.00,40.00,10,4,19,0.00
2013-1-12,43,32,20,28,20,8,100,70,25,0.00,40.00,8,3,17,0.00
2013-1-13,44,33,21,26,18,6,100,60,26,0.00,40.00,8,4,18,0.00
2013-1-14,45,34,27,16,-2,-12,56,23,9,0.00,40.00,11,6,18,0.00
2013-1-15,48,40,28,11,4,-8,34,22,17,0.00,40.00,12,8,23,0.00
2013-1-16,59,49,35,22,16,12,55,27,19,0.00,40.00,18,7,37,0.00
2013-1-17,64,56,47,14,11,8,25,17,13,0.00,40.00,18,10,34,0.00
2013-1-18,65,56,43,15,12,9,28,18,13,0.00,40.00,15,7,28,0.00
2013-1-19,66,51,37,16,11,7,41,21,11,0.00,40.00,10,4,21,0.00
2013-1-20,68,49,31,20,9,1,48,24,9,0.00,40.00,11,4,19,0.00
2013-1-21,69,52,29,12,2,-4,46,17,7,0.00,40.00,11,5,22,0.00
2013-1-22,75,51,30,21,7,-1,47,20,6,0.00,40.00,10,3,20,0.00
2013-1-23,71,55,37,39,29,20,63,40,19,0.00,40.00,10,3,17,0.00
2013-1-24,61,54,49,56,48,38,100,81,59,0.00,40.00,8,2,18,0.00
2013-1-25,58,53,50,54,50,43,100,91,66,0.00,40.00,9,3,18,0.00
2013-1-26,54,51,48,54,51,48,100,100,97,0.00,40.00,9,4,15,0.00
2013-1-27,49,44,38,49,44,36,100,99,93,0.00,40.00,12,7,21,0.00
2013-1-28,44,38,31,38,34,24,100,86,49,0.00,40.00,12,6,22,0.00
2013-1-29,50,39,27,42,35,27,100,89,55,0.00,40.00,11,4,19,0.00
2013-1-30,62,51,34,39,27,21,100,44,24,0.00,40.00,15,8,32,0.00
2013-1-31,64,56,37,29,26,23,69,34,23,0.00,40.00,12,7,26,0.00
2013-2-1,71,50,31,33,26,17,88,48,13,0.00,40.00,9,2,14,0.00
2013-2-2,71,55,39,36,26,16,69,38,12,0.00,40.00,8,3,17,0.00
2013-2-3,63,54,41,45,41,34,100,65,37,0.00,40.00,9,3,18,0.00
2013-2-4,67,49,33,46,37,26,100,71,22,0.00,40.00,10,3,17,0.00
2013-2-5,65,47,32,49,38,30,100,77,30,0.00,40.00,10,3,16,0.00
2013-2-6,56,44,34,43,40,32,100,88,56,0.00,40.00,7,3,13,0.00
2013-2-7,62,44,28,47,34,17,100,75,17,0.00,40.00,9,4,16,0.00
2013-2-8,41,37,32,40,36,32,100,96,74,0.00,40.00,14,9,30,0.00
2013-2-9,43,36,31,37,34,30,100,93,68,0.00,40.00,9,4,15,0.00
2013-2-10,42,36,28,37,33,28,100,88,60,0.00,40.00,9,4,15,0.00
2013-2-11,47,36,26,36,27,14,100,73,30,0.00,40.00,7,2,14,0.00
2013-2-12,55,37,21,21,15,3,84,48,13,0.00,40.00,8,3,17,0.00
2013-2-13,60,42,22,32,23,14,90,55,18,0.00,40.00,9,3,16,0.00
2013-2-14,65,48,27,28,22,17,93,45,18,0.00,40.00,11,5,24,0.00
2013-2-15,63,58,54,19,12,3,23,17,11,0.00,40.00,17,10,37,0.00
2013-2-16,68,58,36,22,9,-1,53,17,7,0.00,40.00,13,7,34,0.00
2013-2-17,61,43,26,33,21,11,81,49,14,0.00,40.00,10,4,18,0.00
2013-2-18,63,41,23,44,28,14,100,68,15,0.00,40.00,10,3,18,0.00
2013-2-19,40,38,35,40,37,34,100,96,84,0.00,40.00,14,6,28,0.00
2013-2-20,41,35,28,37,32,27,100,89,59,0.00,40.00,17,8,30,0.00
2013-2-21,43,34,26,40,33,26,100,96,71,0.00,40.00,8,2,14,0.00
2013-2-22,56,39,22,38,26,14,100,68,22,0.00,40.00,7,2,13,0.00
2013-2-23,58,41,26,34,27,22,99,66,26,0.00,40.00,11,4,19,0.00
2013-2-24,51,40,26,29,7,-4,100,34,12,0.00,40.00,16,6,29,0.00
2013-2-25,60,42,25,19,10,1,60,32,12,0.00,40.00,10,4,17,0.00
2013-2-26,60,42,21,20,12,7,78,37,13,0.00,40.00,14,5,25,0.00
2013-2-27,63,49,34,14,6,0,36,18,10,0.00,40.00,13,7,25,0.00
2013-2-28,64,52,28,14,5,-1,51,17,9,0.00,40.00,15,6,30,0.00
2013-3-1,70,62,49,16,10,5,25,13,10,0.00,40.00,17,9,37,0.00
2013-3-2,78,58,38,27,18,9,63,25,8,0.00,40.00,9,4,18,0.00
2013-3-3,67,49,31,33,24,15,81,45,13,0.00,40.00,12,5,20,0.00
2013-3-4,61,50,39,47,42,33,100,77,45,0.00,40.00,11,4,20,0.00
2013-3-5,65,49,35,50,39,29,100,77,27,0.00,40.00,8,3,18,0.00
2013-3-6,57,46,36,45,40,35,100,81,48,0.00,40.00,12,5,21,0.00
2013-3-7,51,43,34,46,40,34,100,87,57,0.00,40.00,11,4,21,0.00
2013-3-8,43,38,34,43,38,34,100,99,92,0.00,40.00,14,6,29,0.00
2013-3-9,48,40,34,41,39,33,100,96,72,0.00,40.00,13,6,24,0.00
2013-3-10,65,47,31,39,29,12,100,62,13,0.00,40.00,8,3,17,0.00
2013-3-11,71,50,27,37,28,15,95,53,13,0.00,40.00,9,3,14,0.00
2013-3-12,76,55,32,34,25,16,90,43,12,0.00,40.00,12,5,25,0.00
2013-3-13,83,62,40,42,28,19,63,33,10,0.00,40.00,12,4,24,0.00
2013-3-14,83,61,38,42,30,19,80,41,10,0.00,40.00,10,4,18,0.00
2013-3-15,79,60,40,43,34,26,87,46,14,0.00,40.00,10,4,16,0.00
2013-3-16,72,54,37,45,33,15,98,54,14,0.00,40.00,12,4,20,0.00
2013-3-17,72,52,32,51,40,29,100,73,23,0.00,40.00,11,4,18,0.00
2013-3-18,66,50,32,49,39,26,100,74,23,0.00,40.00,10,3,17,0.00
2013-3-19,70,52,34,46,37,29,100,66,22,0.00,40.00,12,4,23,0.00
2013-3-20,72,55,40,42,38,28,94,59,20,0.00,40.00,11,4,18,0.00
2013-3-21,62,51,40,48,41,37,100,74,42,0.00,40.00,10,4,17,0.00
2013-3-22,66,49,33,51,42,33,100,83,41,0.00,40.00,10,4,17,0.00
2013-3-23,70,51,29,46,28,12,100,57,12,0.00,40.00,12,4,23,0.00
2013-3-24,72,53,33,46,35,22,98,58,16,0.00,40.00,9,3,17,0.00
2013-3-25,76,56,36,43,36,21,94,56,14,0.00,40.00,10,3,18,0.00
2013-3-26,69,52,36,42,33,19,97,56,15,0.00,40.00,10,4,18,0.00
2013-3-27,67,52,38,40,32,25,88,51,23,0.00,40.00,11,4,19,0.00
2013-3-28,71,55,35,46,38,31,100,60,23,0.00,40.00,11,4,21,0.00
2013-3-29,73,56,37,51,40,29,100,64,20,0.00,40.00,10,3,17,0.00
2013-3-30,70,57,43,52,44,-100,100,70,29,0.00,40.00,11,4,20,0.00
2013-3-31,63,50,36,49,43,35,100,79,36,0.00,40.00,11,5,20,0.00
2013-4-1,60,49,38,47,42,36,100,80,46,0.00,40.00,13,5,22,0.00
2013-4-2,65,52,46,51,47,43,100,83,50,0.00,40.00,11,6,17,0.00
2013-4-3,78,57,36,47,35,22,100,57,13,0.00,40.00,11,3,18,0.00
2013-4-4,72,56,38,46,35,26,87,51,19,0.00,40.00,11,4,20,0.00
2013-4-5,66,55,48,51,48,38,100,80,35,0.00,40.00,10,6,19,0.00
2013-4-6,66,53,43,53,47,43,100,85,45,0.00,40.00,11,5,20,0.00
2013-4-7,67,53,36,52,46,36,100,81,42,0.00,40.00,10,4,17,0.00
2013-4-8,49,44,40,49,44,40,100,98,78,0.00,40.00,14,8,27,0.00
2013-4-9,60,48,39,43,35,25,100,66,28,0.00,40.00,14,5,22,0.00
2013-4-10,71,54,34,27,20,10,60,30,10,0.00,40.00,11,4,24,0.00
2013-4-11,71,55,35,43,28,15,88,42,14,0.00,40.00,11,5,19,0.00
2013-4-12,77,55,35,51,35,17,97,60,11,0.00,40.00,9,3,19,0.00
2013-4-13,72,56,39,51,39,28,100,57,21,0.00,40.00,12,4,19,0.00
2013-4-14,60,48,33,48,43,33,100,85,54,0.00,40.00,11,5,18,0.00
2013-4-15,50,46,44,49,46,43,100,99,89,0.00,40.00,9,5,20,0.00
2013-4-16,50,43,37,43,37,31,100,82,50,0.00,40.00,11,7,22,0.00
2013-4-17,63,48,32,40,25,6,100,52,11,0.00,40.00,12,4,21,0.00
2013-4-18,67,51,29,19,10,5,49,22,9,0.00,40.00,12,6,24,0.00
2013-4-19,76,58,35,22,10,3,51,18,6,0.00,40.00,11,5,23,0.00
2013-4-20,81,60,33,32,20,12,54,27,8,0.00,40.00,9,4,24,0.00
2013-4-21,80,62,38,36,29,18,72,36,10,0.00,40.00,9,4,18,0.00
2013-4-22,75,57,35,48,33,18,97,46,13,0.00,40.00,11,4,19,0.00
2013-4-23,78,57,34,50,34,18,100,57,11,0.00,40.00,12,4,23,0.00
2013-4-24,68,54,45,52,47,40,100,81,36,0.00,40.00,13,6,23,0.00
2013-4-25,65,52,44,49,45,41,100,80,42,0.00,40.00,10,6,18,0.00
2013-4-26,77,56,34,48,41,32,100,65,19,0.00,40.00,11,4,20,0.00
2013-4-27,83,64,42,46,31,19,92,36,10,0.00,40.00,12,4,22,0.00
2013-4-28,86,67,46,46,31,23,74,31,11,0.00,40.00,12,4,21,0.00
2013-4-29,81,64,40,46,34,25,82,40,13,0.00,40.00,11,4,19,0.00
2013-4-30,73,60,38,52,39,21,100,52,16,0.00,40.00,9,4,17,0.00
2013-5-1,81,62,36,51,29,10,100,49,8,0.00,40.00,13,4,23,0.00
2013-5-2,77,68,53,26,-1,-7,30,7,4,0.00,40.00,16,10,33,0.00
2013-5-3,83,66,45,26,10,0,29,13,5,0.00,40.00,11,5,23,0.00
2013-5-4,76,59,37,37,23,10,68,28,8,0.00,40.00,12,4,22,0.00
2013-5-5,61,49,38,51,43,31,100,82,47,0.00,40.00,11,4,21,0.00
2013-5-6,53,50,48,53,50,48,100,100,96,0.00,40.00,13,6,22,0.00
2013-5-7,54,50,47,50,47,42,100,89,66,0.00,40.00,12,7,22,0.00
2013-5-8,59,49,40,52,46,40,100,91,64,0.00,40.00,11,4,19,0.00
2013-5-9,64,53,43,54,49,43,100,88,62,0.00,40.00,11,6,22,0.00
2013-5-10,76,61,46,53,44,-100,100,64,20,0.00,40.00,11,4,20,0.00
2013-5-11,86,70,49,49,35,-100,86,36,11,0.00,40.00,10,4,20,0.00
2013-5-12,89,74,50,45,30,21,59,25,9,0.00,40.00,11,4,25,0.00
2013-5-13,92,74,52,42,34,24,54,28,9,0.00,40.00,9,3,21,0.00
2013-5-14,86,70,51,44,32,15,68,32,8,0.00,40.00,13,5,19,0.00
2013-5-15,77,60,39,52,36,23,91,46,17,0.00,40.00,11,4,23,0.00
2013-5-16,75,55,41,51,25,-100,99,59,17,0.00,40.00,9,4,17,0.00
2013-5-17,68,55,44,53,44,-100,100,79,42,0.00,40.00,12,5,22,0.00
2013-5-18,70,58,48,52,48,42,100,75,39,0.00,40.00,11,5,19,0.00
2013-5-19,77,59,39,51,45,39,100,67,30,0.00,40.00,10,4,19,0.00
2013-5-20,85,67,45,49,37,22,100,47,11,0.00,40.00,12,4,25,0.00
2013-5-21,82,67,47,53,39,27,90,41,14,0.00,40.00,10,4,20,0.00
2013-5-22,75,59,41,50,37,12,100,54,10,0.00,40.00,11,4,21,0.00
2013-5-23,69,54,40,50,40,24,100,67,24,0.00,40.00,12,5,21,0.00
2013-5-24,71,54,31,44,34,13,100,55,13,0.00,40.00,9,4,18,0.00
2013-5-25,71,54,33,51,33,11,100,52,13,0.00,40.00,10,4,18,0.00
2013-5-26,70,54,34,48,37,27,100,60,24,0.00,40.00,10,4,17,0.00
2013-5-27,73,57,41,50,42,36,98,62,27,0.00,40.00,12,5,20,0.00
2013-5-28,70,58,44,56,48,42,100,75,38,0.00,40.00,13,6,23,0.00
2013-5-29,80,66,50,53,45,38,98,52,22,0.00,40.00,12,5,21,0.00
2013-5-30,81,64,43,53,45,39,100,57,25,0.00,40.00,9,4,17,0.00
2013-5-31,88,67,43,54,45,35,96,53,19,0.00,40.00,10,4,17,0.00
2013-6-1,95,74,51,54,42,26,88,44,9,0.00,40.00,11,4,21,0.00
2013-6-2,85,69,49,49,38,29,78,38,14,0.00,40.00,9,4,17,0.00
2013-6-3,80,64,44,54,42,30,94,51,19,0.00,40.00,10,4,16,0.00
2013-6-4,79,62,40,54,40,23,99,54,16,0.00,40.00,9,4,17,0.00
2013-6-5,83,62,39,55,44,30,100,60,18,0.00,40.00,12,5,21,0.00
2013-6-6,84,64,41,55,45,34,100,61,17,0.00,40.00,12,5,21,0.00
2013-6-7,85,66,44,54,48,40,100,61,25,0.00,40.00,11,4,18,0.00
2013-6-8,86,69,48,53,47,40,99,54,22,0.00,40.00,10,4,16,0.00
2013-6-9,86,69,45,49,30,6,74,29,5,0.00,40.00,12,4,19,0.00
2013-6-10,81,73,56,50,36,14,73,31,9,0.00,40.00,10,6,20,0.00
2013-6-11,90,70,47,54,38,18,74,37,8,0.00,40.00,11,4,17,0.00
2013-6-12,83,70,51,54,46,31,85,49,16,0.00,40.00,10,4,16,0.00
2013-6-13,85,68,43,53,40,25,82,43,14,0.00,40.00,12,5,22,0.00
2013-6-14,83,65,43,53,40,17,100,52,9,0.00,40.00,11,4,19,0.00
2013-6-15,82,64,39,47,31,10,85,40,8,0.00,40.00,10,4,18,0.00
2013-6-16,83,66,34,51,31,8,82,35,7,0.00,40.00,11,5,19,0.00
2013-6-17,86,69,43,45,35,26,82,36,13,0.00,40.00,11,5,21,0.00
2013-6-18,83,69,42,51,37,26,86,37,15,0.00,40.00,12,6,22,0.00
2013-6-19,82,65,42,52,38,17,98,48,12,0.00,40.00,12,5,21,0.00
2013-6-20,84,63,40,49,35,24,100,49,13,0.00,40.00,11,4,20,0.00
2013-6-21,81,79,76,41,37,32,25,22,17,0.00,40.00,9,8,16,0.00
2013-6-22,84,74,54,45,37,25,72,29,14,0.00,40.00,11,6,18,0.00
2013-6-23,78,65,43,54,41,32,86,46,23,0.00,40.00,11,5,19,0.00
2013-6-24,76,61,43,57,44,28,98,62,19,0.00,40.00,12,5,21,0.00
2013-6-25,83,65,49,59,52,46,100,68,31,0.00,40.00,13,5,22,0.00
2013-6-26,90,75,53,58,52,48,100,51,24,0.00,40.00,10,5,17,0.00
2013-6-27,93,77,58,55,49,42,84,44,17,0.00,40.00,10,4,16,0.00
2013-6-28,97,80,57,54,45,36,76,35,13,0.00,40.00,12,5,20,0.00
2013-6-29,99,89,65,49,40,30,34,19,11,0.00,40.00,12,6,20,0.00
2013-6-30,102,88,68,51,43,32,46,23,9,0.00,40.00,11,5,19,0.00
2013-7-1,93,82,66,52,45,40,48,30,16,0.00,40.00,10,4,17,0.00
2013-7-2,94,80,62,54,47,37,59,34,14,0.00,40.00,12,5,21,0.00
2013-7-3,90,80,66,51,45,38,47,31,17,0.00,40.00,11,5,18,0.00
2013-7-4,93,79,62,46,38,25,48,25,12,0.00,40.00,13,6,21,0.00
2013-7-5,90,75,60,56,47,34,70,40,15,0.00,40.00,12,5,21,0.00
2013-7-6,88,73,59,60,54,48,88,57,25,0.00,40.00,11,5,20,0.00
2013-7-7,93,74,57,59,52,43,96,55,18,0.00,40.00,10,4,18,0.00
2013-7-8,98,78,59,53,44,32,75,38,12,0.00,40.00,9,3,16,0.00
2013-7-9,96,82,69,50,42,32,39,25,11,0.00,40.00,11,5,20,0.00
2013-7-10,84,73,68,54,46,-100,53,41,28,0.00,40.00,9,4,14,0.00
2013-7-11,79,71,66,63,57,45,87,62,44,0.00,40.00,9,3,17,0.00
2013-7-12,88,74,63,63,57,50,96,63,29,0.00,40.00,11,5,21,0.00
2013-7-13,88,75,57,61,52,45,99,52,24,0.00,40.00,11,5,20,0.00
2013-7-14,91,78,61,54,46,40,75,37,19,0.00,40.00,11,5,18,0.00
2013-7-15,90,76,58,47,42,34,63,33,14,0.00,40.00,12,4,19,0.00
2013-7-16,87,76,59,40,29,20,34,20,9,0.00,40.00,11,6,19,0.00
2013-7-17,91,76,49,39,25,2,38,19,4,0.00,40.00,10,4,16,0.00
2013-7-18,91,76,52,46,38,23,53,28,9,0.00,40.00,11,5,18,0.00
2013-7-19,91,76,56,52,42,29,62,34,12,0.00,40.00,10,4,16,0.00
2013-7-20,85,71,60,67,51,-100,79,52,33,0.00,40.00,9,4,18,0.00
2013-7-21,82,69,61,70,64,56,100,84,47,0.00,40.00,9,2,15,0.00
2013-7-22,80,71,62,71,64,58,100,81,49,0.00,40.00,10,3,17,0.00
2013-7-23,84,73,60,65,60,56,100,69,40,0.00,40.00,11,5,19,0.00
2013-7-24,88,74,60,63,59,53,99,64,31,0.00,40.00,13,5,20,0.00
2013-7-25,91,78,64,62,52,45,89,46,21,0.00,40.00,11,5,18,0.00
2013-7-26,85,74,65,62,55,42,81,55,22,0.00,40.00,8,2,14,0.00
2013-7-27,88,73,58,60,52,40,94,55,20,0.00,40.00,12,4,20,0.00
2013-7-28,84,72,54,56,45,30,93,47,17,0.00,40.00,11,5,19,0.00
2013-7-29,85,70,51,54,47,39,89,49,21,0.00,40.00,10,5,17,0.00
2013-7-30,85,70,53,57,51,43,91,56,27,0.00,40.00,9,3,18,0.00
2013-7-31,86,68,52,57,48,30,96,58,14,0.00,40.00,10,3,20,0.00
2013-8-1,84,67,48,49,36,23,78,37,13,0.00,40.00,9,4,15,0.00
2013-8-2,86,68,46,52,40,24,79,43,12,0.00,40.00,9,4,18,0.00
2013-8-3,85,69,50,54,43,24,86,46,12,0.00,40.00,10,4,18,0.00
2013-8-4,88,72,50,51,41,24,83,39,12,0.00,40.00,11,5,18,0.00
2013-8-5,88,73,50,51,40,18,79,38,8,0.00,40.00,10,5,19,0.00
2013-8-6,87,73,48,51,38,15,83,37,8,0.00,40.00,10,5,18,0.00
2013-8-7,83,71,47,50,36,18,82,33,11,0.00,40.00,11,6,20,0.00
2013-8-8,85,69,50,45,33,14,60,32,8,0.00,40.00,9,4,17,0.00
2013-8-9,82,65,47,50,38,18,79,42,10,0.00,40.00,9,4,17,0.00
2013-8-10,80,66,44,48,35,19,75,37,12,0.00,40.00,11,5,17,0.00
2013-8-11,85,69,45,52,39,25,82,40,13,0.00,40.00,10,5,18,0.00
2013-8-17,94,77,62,47,31,-100,57,24,18,0.00,40.00,11,6,17,0.00
2013-8-18,92,82,65,50,45,41,48,30,17,0.00,40.00,9,6,18,0.00
2013-8-19,86,43,63,52,-11,-100,60,36,25,0.00,40.00,9,5,17,0.00
2013-8-20,92,74,56,53,27,-100,81,29,10,0.00,40.00,9,5,16,0.00
2013-8-21,95,77,58,43,38,29,43,27,11,0.00,40.00,9,4,17,0.00
2013-8-22,94,84,64,44,38,35,43,21,14,0.00,40.00,9,4,16,0.00
2013-8-23,92,83,63,49,46,41,45,28,20,0.00,40.00,9,4,15,0.00
2013-11-13,80,72,56,27,23,20,33,17,12,0.00,40.00,8,6,16,0.00
2013-11-14,79,67,56,29,25,18,31,22,11,0.00,40.00,7,3,14,0.00
2013-11-15,53,51,48,50,50,48,100,94,90,0.00,40.00,9,7,15,0.00
2013-11-16,49,38,46,48,16,-100,100,75,82,0.00,40.00,6,5,11,0.00
2013-11-17,59,48,39,46,42,39,100,83,50,0.00,40.00,8,2,12,0.00
2013-11-18,61,44,32,49,40,32,100,88,55,0.00,40.00,8,3,13,0.00
2013-11-19,54,50,48,49,48,47,100,93,77,0.00,40.00,8,5,13,0.00
2013-12-26,61,58,56,2,1,0,11,10,9,0.00,40.00,11,9,24,0.00
2013-12-27,68,63,58,7,4,0,9,9,9,0.00,40.00,9,8,18,0.00
2013-12-28,62,40,59,10,-27,-100,14,9,12,0.00,40.00,6,5,11,0.00
2013-12-29,43,43,43,12,12,12,28,28,28,0.00,40.00,3,3,7,0.00
2013-12-31,64,59,54,14,11,8,20,16,11,0.00,40.00,5,4,9,0.00
2014-1-1,70,56,35,14,10,6,42,21,8,0.00,40.00,12,7,20,0.00